aviador You're here:

KCSM Decoded Metar

CLINTON in OK, USA
Report Time2017-05-26 12:53:00
UTC Time2017-05-26 13:11:10
Flight Rules vfr VFR
Wind330° at 20 Gusting to 23 kt
W.Decomp.*RWY 35: 17.7 kt HW 9.4 kt LCW
W.Rank330° ranks 16
Current wind is above 330° avg. (10.8)
Visibility9999 m
Phenomena:N/A
Clouds:N/A
Expected CloudBase > 1,600 ft AGL from Temp-Dew spread
CeilingNone
Temp19°C (ISA +8)
Dew Point15°C (78% RH)
AAT13.4°C
QNH1006 hPa
Density Alt3,317 ft
Elevation1,929 ft
Report Wrong Elevation
Raw Report
KCSM 261253Z AUTO 33020G23KT 10SM CLR 19/15 A2971 RMK AO2 SLP034
T01890150=

Extra information for KCSM:More info

Metar Taf Metar & Taf Last 4 Metars F.Rules Stats Wind Profile Meteogram Temp Stats Airport Information Weather charts Add Link Nearby VenuesMetar ALERT Operation Metar Decoded Social comments

AIRNAV info for KCSM